Time;durP1;ratioP1;P1;durP2;ratioP2;P2;SDS_P1;SDS_P2;PMS_P1;PMS_P2;Temp;Humidity;BMP_temperature;BMP_pressure;BME280_temperature;BME280_humidity;BME280_pressure;Samples;Min_cycle;Max_cycle;Signal;HPM_P1;HPM_P2
2022/10/05 00:00:59;;;;;;;3.57;1.83;;;;;;;-144.22;100.00;60274.75;6085586;29;20309;-79
2022/10/05 00:04:31;;;;;;;1.70;1.50;;;;;;;-144.22;100.00;60274.75;6088869;29;20336;-77
2022/10/05 00:07:33;;;;;;;4.67;1.77;;;;;;;-144.22;100.00;60274.75;5990292;29;20239;-78
2022/10/05 00:10:37;;;;;;;3.57;2.07;;;;;;;-144.22;100.00;60274.75;5994574;29;20248;-80
2022/10/05 00:13:40;;;;;;;1.87;1.60;;;;;;;-144.22;100.00;60274.75;5995200;29;20243;-79
2022/10/05 00:16:42;;;;;;;4.37;2.40;;;;;;;-144.22;100.00;60274.75;5994134;29;20250;-79
2022/10/05 00:19:50;;;;;;;2.23;1.90;;;;;;;-144.22;100.00;60274.75;5995407;29;20370;-78
2022/10/05 00:22:59;;;;;;;3.03;1.80;;;;;;;-144.22;100.00;60274.75;5995113;29;20243;-79
2022/10/05 00:26:21;;;;;;;3.00;1.90;;;;;;;-144.22;100.00;60274.75;5994987;29;20237;-79
2022/10/05 00:29:24;;;;;;;2.73;1.60;;;;;;;-144.22;100.00;60274.75;5993781;29;20323;-79
2022/10/05 00:32:26;;;;;;;2.67;1.50;;;;;;;-144.22;100.00;60274.75;5996396;29;20240;-79
2022/10/05 00:35:29;;;;;;;2.93;1.73;;;;;;;-144.22;100.00;60274.75;5995520;29;20255;-79
2022/10/05 00:38:31;;;;;;;5.73;1.77;;;;;;;-144.22;100.00;60274.75;5995824;29;20238;-79
2022/10/05 00:41:52;;;;;;;2.40;1.67;;;;;;;-144.22;100.00;60274.75;5980320;29;20232;-79
2022/10/05 00:45:19;;;;;;;1.87;1.40;;;;;;;-144.22;100.00;60274.75;6066239;29;20722;-78
2022/10/05 00:48:21;;;;;;;3.63;1.73;;;;;;;-144.22;100.00;60274.75;6094477;29;20328;-78
2022/10/05 00:51:27;;;;;;;1.90;1.40;;;;;;;-144.22;100.00;60274.75;6093563;29;20240;-78
2022/10/05 00:54:41;;;;;;;2.33;1.63;;;;;;;-144.22;100.00;60274.75;6072404;29;20589;-78
2022/10/05 00:58:01;;;;;;;2.57;1.50;;;;;;;-144.22;100.00;60274.75;6072018;29;20238;-78
2022/10/05 01:01:16;;;;;;;2.17;1.70;;;;;;;-144.22;100.00;60274.75;6087382;29;20230;-79
2022/10/05 01:04:29;;;;;;;3.33;2.10;;;;;;;-144.22;100.00;60274.75;6087701;29;20323;-78
2022/10/05 01:07:40;;;;;;;3.00;1.80;;;;;;;-144.22;100.00;60274.75;6087077;29;20272;-79
2022/10/05 01:10:50;;;;;;;3.93;1.67;;;;;;;-144.22;100.00;60274.75;6086918;29;20236;-78
2022/10/05 01:14:15;;;;;;;5.70;2.20;;;;;;;-144.22;100.00;60274.75;6086970;29;20245;-78
2022/10/05 01:17:35;;;;;;;3.30;1.83;;;;;;;-144.22;100.00;60274.75;6086502;29;20697;-79
2022/10/05 01:21:01;;;;;;;2.33;1.50;;;;;;;-144.22;100.00;60274.75;6086699;29;20230;-79
2022/10/05 01:24:16;;;;;;;5.07;1.70;;;;;;;-144.22;100.00;60274.75;6071134;29;20320;-79
2022/10/05 01:27:53;;;;;;;3.83;1.73;;;;;;;-144.22;100.00;60274.75;6085182;29;20584;-79
2022/10/05 01:31:06;;;;;;;1.73;1.53;;;;;;;-144.22;100.00;60274.75;6073404;29;20613;-79
2022/10/05 01:34:30;;;;;;;7.20;1.97;;;;;;;-144.22;100.00;60274.75;6079143;29;20996;-79
2022/10/05 01:38:03;;;;;;;4.67;1.90;;;;;;;-144.22;100.00;60274.75;6073895;29;20244;-78
2022/10/05 01:41:34;;;;;;;3.03;1.70;;;;;;;-144.22;100.00;60274.75;6087291;29;20237;-78
2022/10/05 01:44:47;;;;;;;2.17;1.90;;;;;;;-144.22;100.00;60274.75;6085974;29;20246;-78
2022/10/05 01:48:27;;;;;;;1.80;1.57;;;;;;;-144.22;100.00;60274.75;6086746;29;20880;-79
2022/10/05 01:51:46;;;;;;;3.10;1.60;;;;;;;-144.22;100.00;60274.75;6070205;29;20243;-79
2022/10/05 01:55:00;;;;;;;1.70;1.60;;;;;;;-144.22;100.00;60274.75;6086506;29;20230;-79
2022/10/05 01:58:25;;;;;;;2.60;1.47;;;;;;;-144.22;100.00;60274.75;6086329;29;20266;-78
2022/10/05 02:01:40;;;;;;;2.60;1.47;;;;;;;-144.22;100.00;60274.75;6057633;29;20231;-79
2022/10/05 02:05:03;;;;;;;2.43;1.43;;;;;;;-144.22;100.00;60274.75;6077850;29;20244;-79
2022/10/05 02:08:13;;;;;;;1.30;1.20;;;;;;;-144.22;100.00;60274.75;6091078;29;20603;-78
2022/10/05 02:11:15;;;;;;;1.87;1.70;;;;;;;-144.22;100.00;60274.75;6088372;29;20244;-79
2022/10/05 02:14:33;;;;;;;1.53;1.40;;;;;;;-144.22;100.00;60274.75;6069930;29;20235;-78
2022/10/05 02:17:40;;;;;;;2.80;1.57;;;;;;;-144.22;100.00;60274.75;6086352;29;20242;-79
2022/10/05 02:20:46;;;;;;;2.27;1.30;;;;;;;-144.22;100.00;60274.75;6085961;29;20242;-79
2022/10/05 02:23:52;;;;;;;2.27;1.80;;;;;;;-144.22;100.00;60274.75;6086057;29;20695;-79
2022/10/05 02:26:55;;;;;;;2.87;1.70;;;;;;;-144.22;100.00;60274.75;6063024;29;20744;-79
2022/10/05 02:30:04;;;;;;;2.83;1.83;;;;;;;-144.22;100.00;60274.75;6073690;29;20384;-78
2022/10/05 02:33:29;;;;;;;1.80;1.57;;;;;;;-144.22;100.00;60274.75;6062020;29;20583;-78
2022/10/05 02:36:36;;;;;;;2.43;1.50;;;;;;;-144.22;100.00;60274.75;6083475;29;20323;-78
2022/10/05 02:39:45;;;;;;;5.57;1.50;;;;;;;-144.22;100.00;60274.75;6087791;29;20306;-79
2022/10/05 02:43:00;;;;;;;2.13;1.70;;;;;;;-144.22;100.00;60274.75;6076514;29;20245;-79
2022/10/05 02:46:18;;;;;;;1.97;1.57;;;;;;;-144.22;100.00;60274.75;6069621;29;20237;-78
2022/10/05 02:49:50;;;;;;;1.50;1.40;;;;;;;-144.22;100.00;60274.75;6077402;29;20242;-77
2022/10/05 02:52:58;;;;;;;1.50;1.40;;;;;;;-144.22;100.00;60274.75;6077090;29;20725;-79
2022/10/05 02:56:15;;;;;;;1.87;1.33;;;;;;;-144.22;100.00;60274.75;6074047;29;20264;-78
2022/10/05 02:59:42;;;;;;;6.23;1.83;;;;;;;-144.22;100.00;60274.75;6082888;29;20297;-79
2022/10/05 03:03:08;;;;;;;2.90;1.90;;;;;;;-144.22;100.00;60274.75;6068608;29;20252;-78
2022/10/05 03:06:21;;;;;;;1.30;1.20;;;;;;;-144.22;100.00;60274.75;6084266;29;20327;-79
2022/10/05 03:09:30;;;;;;;1.53;1.40;;;;;;;-144.22;100.00;60274.75;6085981;29;20224;-79
2022/10/05 03:12:47;;;;;;;1.83;1.50;;;;;;;-144.22;100.00;60274.75;6084604;29;20664;-78
2022/10/05 03:16:08;;;;;;;2.73;1.70;;;;;;;-144.22;100.00;60274.75;6086118;29;20293;-78
2022/10/05 03:19:24;;;;;;;1.87;1.40;;;;;;;-144.22;100.00;60274.75;6084568;29;20708;-79
2022/10/05 03:22:49;;;;;;;4.63;1.90;;;;;;;-144.22;100.00;60274.75;6084129;29;20602;-79
2022/10/05 03:26:13;;;;;;;3.43;1.67;;;;;;;-144.22;100.00;60274.75;6069754;29;20479;-78
2022/10/05 03:29:18;;;;;;;2.33;1.60;;;;;;;-144.22;100.00;60274.75;6079246;29;20817;-79
2022/10/05 03:32:28;;;;;;;3.27;1.67;;;;;;;-144.22;100.00;60274.75;6069246;29;20232;-79
2022/10/05 03:35:49;;;;;;;1.67;1.57;;;;;;;-144.22;100.00;60274.75;6085435;29;20235;-79
2022/10/05 03:38:55;;;;;;;3.73;1.50;;;;;;;-144.22;100.00;60274.75;6084466;29;20601;-79
2022/10/05 03:42:23;;;;;;;2.17;1.47;;;;;;;-144.22;100.00;60274.75;6063187;29;20233;-78
2022/10/05 03:45:25;;;;;;;2.10;1.53;;;;;;;-144.22;100.00;60274.75;6091168;29;20231;-79
2022/10/05 03:48:47;;;;;;;2.70;1.80;;;;;;;-144.22;100.00;60274.75;6093638;29;20235;-78
2022/10/05 03:52:03;;;;;;;2.17;1.70;;;;;;;-144.22;100.00;60274.75;6093022;29;20243;-78
2022/10/05 03:55:15;;;;;;;2.60;1.70;;;;;;;-144.22;100.00;60274.75;6094028;29;20709;-79
2022/10/05 03:58:34;;;;;;;2.27;1.77;;;;;;;-144.22;100.00;60274.75;6092690;29;20751;-78
2022/10/05 04:01:57;;;;;;;1.63;1.53;;;;;;;-144.22;100.00;60274.75;6068137;29;20229;-78
2022/10/05 04:05:16;;;;;;;2.97;1.87;;;;;;;-144.22;100.00;60274.75;6074404;29;20349;-78
2022/10/05 04:08:31;;;;;;;3.10;1.70;;;;;;;-144.22;100.00;60274.75;6084532;29;20237;-79
2022/10/05 04:11:49;;;;;;;1.73;1.40;;;;;;;-144.22;100.00;60274.75;6076349;29;20674;-79
2022/10/05 04:15:07;;;;;;;5.17;2.10;;;;;;;-144.22;100.00;60274.75;6091973;29;20708;-78
2022/10/05 04:18:25;;;;;;;4.33;1.80;;;;;;;-144.22;100.00;60274.75;6092275;29;20236;-79
2022/10/05 04:21:33;;;;;;;10.60;2.13;;;;;;;-144.22;100.00;60274.75;6075549;29;20575;-78
2022/10/05 04:24:47;;;;;;;3.73;1.43;;;;;;;-144.22;100.00;60274.75;6091833;29;20269;-79
2022/10/05 04:28:00;;;;;;;1.80;1.50;;;;;;;-144.22;100.00;60274.75;6058711;29;20228;-78
2022/10/05 04:31:04;;;;;;;2.67;1.70;;;;;;;-144.22;100.00;60274.75;6071124;29;20263;-79
2022/10/05 04:34:23;;;;;;;2.63;1.97;;;;;;;-144.22;100.00;60274.75;6060496;29;20240;-79
2022/10/05 04:37:44;;;;;;;2.43;1.37;;;;;;;-144.22;100.00;60274.75;6091426;29;20273;-78
2022/10/05 04:41:08;;;;;;;3.17;1.97;;;;;;;-144.22;100.00;60274.75;6091075;29;20236;-79
2022/10/05 04:44:32;;;;;;;1.50;1.40;;;;;;;-144.22;100.00;60274.75;6090368;29;20243;-78
2022/10/05 04:47:47;;;;;;;3.40;1.90;;;;;;;-144.22;100.00;60274.75;6091400;29;20244;-78
2022/10/05 04:51:01;;;;;;;2.27;1.87;;;;;;;-144.22;100.00;60274.75;6090696;29;20239;-78
2022/10/05 04:54:25;;;;;;;4.70;1.93;;;;;;;-144.22;100.00;60274.75;6089875;29;20239;-78
2022/10/05 04:57:33;;;;;;;1.53;1.30;;;;;;;-144.22;100.00;60274.75;6087380;29;20715;-78
2022/10/05 05:00:47;;;;;;;1.90;1.70;;;;;;;-144.22;100.00;60274.75;6081080;29;20232;-79
2022/10/05 05:04:20;;;;;;;3.20;1.80;;;;;;;-144.22;100.00;60274.75;6088392;29;20265;-78
2022/10/05 05:07:43;;;;;;;2.53;1.60;;;;;;;-144.22;100.00;60274.75;6064967;29;20241;-78
2022/10/05 05:10:53;;;;;;;2.30;1.67;;;;;;;-144.22;100.00;60274.75;6078046;29;20241;-78
2022/10/05 05:14:04;;;;;;;2.73;1.80;;;;;;;-144.22;100.00;60274.75;6087776;29;20231;-79
2022/10/05 05:17:31;;;;;;;2.57;2.10;;;;;;;-144.22;100.00;60274.75;6086869;29;20762;-78
2022/10/05 05:21:06;;;;;;;5.87;2.00;;;;;;;-144.22;100.00;60274.75;6086583;29;20251;-79
2022/10/05 05:24:23;;;;;;;3.93;1.77;;;;;;;-144.22;100.00;60274.75;6071909;29;20752;-78
2022/10/05 05:27:38;;;;;;;3.77;2.77;;;;;;;-144.22;100.00;60274.75;6099408;29;20320;-78
2022/10/05 05:31:28;;;;;;;6.67;3.53;;;;;;;-144.22;100.00;60274.75;6062289;29;20687;-79
2022/10/05 05:34:58;;;;;;;6.63;2.10;;;;;;;-144.22;100.00;60274.75;6054408;29;20245;-79
2022/10/05 05:38:21;;;;;;;3.57;1.90;;;;;;;-144.22;100.00;60274.75;6079520;29;20329;-79
2022/10/05 05:41:38;;;;;;;2.37;2.00;;;;;;;-144.22;100.00;60274.75;6067723;29;20243;-79
2022/10/05 05:44:49;;;;;;;2.90;1.83;;;;;;;-144.22;100.00;60274.75;6078759;29;20253;-78
2022/10/05 05:47:53;;;;;;;2.90;1.73;;;;;;;-144.22;100.00;60274.75;6077625;29;20328;-79
2022/10/05 05:51:07;;;;;;;2.17;1.97;;;;;;;-144.22;100.00;60274.75;6084115;29;20244;-79
2022/10/05 05:54:33;;;;;;;2.60;2.23;;;;;;;-144.22;100.00;60274.75;6069785;29;20222;-80
2022/10/05 05:57:52;;;;;;;2.00;1.80;;;;;;;-144.22;100.00;60274.75;6085111;29;20226;-80
2022/10/05 06:01:04;;;;;;;3.33;2.33;;;;;;;-144.22;100.00;60274.75;6062485;29;20641;-79
2022/10/05 06:04:14;;;;;;;3.00;1.73;;;;;;;-144.22;100.00;60274.75;6062095;29;20328;-78
2022/10/05 06:07:26;;;;;;;4.77;2.20;;;;;;;-144.22;100.00;60274.75;6048189;29;20241;-79
2022/10/05 06:10:46;;;;;;;5.43;2.20;;;;;;;-144.22;100.00;60274.75;6061724;29;20584;-79
2022/10/05 06:13:50;;;;;;;2.10;1.90;;;;;;;-144.22;100.00;60274.75;6062743;29;20322;-79
2022/10/05 06:17:05;;;;;;;2.80;2.20;;;;;;;-144.22;100.00;60274.75;6062302;29;20736;-78
2022/10/05 06:20:43;;;;;;;2.00;1.80;;;;;;;-144.22;100.00;60274.75;6061675;29;20231;-79
2022/10/05 06:23:58;;;;;;;3.70;2.00;;;;;;;-144.22;100.00;60274.75;6062201;29;20264;-80
2022/10/05 06:27:25;;;;;;;2.23;2.03;;;;;;;-144.22;100.00;60274.75;6068844;29;20240;-79
2022/10/05 06:30:53;;;;;;;3.03;1.77;;;;;;;-144.22;100.00;60274.75;6074682;29;20361;-79
2022/10/05 06:34:25;;;;;;;3.17;2.33;;;;;;;-144.22;100.00;60274.75;6061783;29;20249;-79
2022/10/05 06:37:57;;;;;;;4.83;1.87;;;;;;;-144.22;100.00;60274.75;6055838;29;20233;-79
2022/10/05 06:41:10;;;;;;;2.00;1.80;;;;;;;-144.22;100.00;60274.75;5989922;29;20276;-77
2022/10/05 06:44:16;;;;;;;3.87;2.33;;;;;;;-144.22;100.00;60274.75;5990676;29;20263;-79
2022/10/05 06:47:46;;;;;;;4.97;2.40;;;;;;;-144.22;100.00;60274.75;5990498;29;20242;-79
2022/10/05 06:51:19;;;;;;;2.23;1.90;;;;;;;-144.22;100.00;60274.75;5978105;29;20257;-79
2022/10/05 06:55:05;;;;;;;2.73;2.47;;;;;;;-144.22;100.00;60274.75;5990129;29;20237;-79
2022/10/05 06:59:02;;;;;;;2.33;2.00;;;;;;;-144.22;100.00;60274.75;5990386;29;20332;-79
2022/10/05 07:02:13;;;;;;;2.17;1.70;;;;;;;-144.22;100.00;60274.75;5967410;29;20251;-79
2022/10/05 07:05:15;;;;;;;4.13;1.90;;;;;;;-144.22;100.00;60274.75;5980805;29;20236;-79
2022/10/05 07:08:35;;;;;;;2.30;1.80;;;;;;;-144.22;100.00;60274.75;5982934;29;20292;-79
2022/10/05 07:11:55;;;;;;;2.60;2.00;;;;;;;-144.22;100.00;60274.75;5981403;29;20328;-79
2022/10/05 07:15:48;;;;;;;3.57;2.20;;;;;;;-144.22;100.00;60274.75;5983599;29;20635;-79
2022/10/05 07:19:05;;;;;;;6.17;2.23;;;;;;;-144.22;100.00;60274.75;6058919;29;20242;-79
2022/10/05 07:22:40;;;;;;;2.00;1.80;;;;;;;-144.22;100.00;60274.75;6084090;29;20245;-80
2022/10/05 07:25:54;;;;;;;2.50;1.67;;;;;;;-144.22;100.00;60274.75;6076427;29;20243;-79
2022/10/05 07:29:19;;;;;;;2.13;1.77;;;;;;;-144.22;100.00;60274.75;6084423;29;20241;-79
2022/10/05 07:32:55;;;;;;;1.90;1.77;;;;;;;-144.22;100.00;60274.75;6070533;29;20322;-79
2022/10/05 07:40:02;;;;;;;2.33;2.10;;;;;;;-144.22;100.00;60274.75;6084556;29;20251;-79
2022/10/05 07:43:41;;;;;;;2.07;1.63;;;;;;;-144.22;100.00;60274.75;6068210;29;20241;-79
2022/10/05 07:47:29;;;;;;;2.53;2.33;;;;;;;-144.22;100.00;60274.75;6024886;29;20373;-79
2022/10/05 07:50:42;;;;;;;3.87;1.73;;;;;;;-144.22;100.00;60274.75;6038765;29;20233;-79
2022/10/05 07:54:06;;;;;;;1.70;1.53;;;;;;;-144.22;100.00;60274.75;6052583;29;20249;-79
2022/10/05 07:57:28;;;;;;;1.70;1.60;;;;;;;-144.22;100.00;60274.75;6062264;29;20732;-79
2022/10/05 08:01:07;;;;;;;1.73;1.43;;;;;;;-144.22;100.00;60274.75;6061331;29;20244;-77
2022/10/05 08:04:18;;;;;;;3.73;1.60;;;;;;;-144.22;100.00;60274.75;6052880;29;20253;-77
2022/10/05 08:07:21;;;;;;;2.77;1.60;;;;;;;-144.22;100.00;60274.75;6079526;29;20233;-77
2022/10/05 08:10:27;;;;;;;1.57;1.47;;;;;;;-144.22;100.00;60274.75;6059362;29;20700;-79
2022/10/05 08:13:53;;;;;;;4.17;1.87;;;;;;;-144.22;100.00;60274.75;6060664;29;20712;-79
2022/10/05 08:17:01;;;;;;;1.40;1.30;;;;;;;-144.22;100.00;60274.75;6045770;29;20769;-79
2022/10/05 08:20:34;;;;;;;2.70;1.50;;;;;;;-144.22;100.00;60274.75;6052887;29;20374;-79
2022/10/05 08:23:57;;;;;;;1.50;1.10;;;;;;;-144.22;100.00;60274.75;6052310;29;20277;-79
2022/10/05 08:27:00;;;;;;;2.70;1.20;;;;;;;-144.22;100.00;60274.75;6070998;29;20314;-79
2022/10/05 08:30:09;;;;;;;2.00;1.47;;;;;;;-144.22;100.00;60274.75;6075129;29;20317;-79
2022/10/05 08:33:16;;;;;;;3.70;1.60;;;;;;;-144.22;100.00;60274.75;6080036;29;20725;-79
2022/10/05 08:36:30;;;;;;;2.47;1.77;;;;;;;-144.22;100.00;60274.75;6079437;29;20227;-80
2022/10/05 08:39:39;;;;;;;3.13;1.93;;;;;;;-144.22;100.00;60274.75;6076349;29;20657;-79
2022/10/05 08:43:10;;;;;;;2.93;1.87;;;;;;;-144.22;100.00;60274.75;6053234;29;20248;-79
2022/10/05 08:46:21;;;;;;;2.10;1.70;;;;;;;-144.22;100.00;60274.75;6086504;29;20236;-78
2022/10/05 08:49:32;;;;;;;2.60;1.80;;;;;;;-144.22;100.00;60274.75;6087255;29;20274;-79
2022/10/05 08:52:41;;;;;;;3.30;1.80;;;;;;;-144.22;100.00;60274.75;6089532;29;20726;-79
2022/10/05 08:56:05;;;;;;;2.43;2.00;;;;;;;-144.22;100.00;60274.75;6072167;29;20242;-79
2022/10/05 08:59:39;;;;;;;3.00;1.70;;;;;;;-144.22;100.00;60274.75;6077786;29;20240;-79
2022/10/05 09:03:18;;;;;;;3.37;1.63;;;;;;;-144.22;100.00;60274.75;6063805;29;20705;-79
2022/10/05 09:06:51;;;;;;;2.20;1.70;;;;;;;-144.22;100.00;60274.75;6062814;29;20233;-80
2022/10/05 09:10:30;;;;;;;1.83;1.50;;;;;;;-144.22;100.00;60274.75;6052107;29;20701;-78
2022/10/05 09:13:44;;;;;;;2.93;1.73;;;;;;;16.53;100.00;60274.75;6065823;29;20772;-79
2022/10/05 09:17:15;;;;;;;3.63;1.40;;;;;;;-144.22;100.00;60274.75;6087399;29;20240;-77
2022/10/05 09:20:39;;;;;;;4.07;2.03;;;;;;;19.15;100.00;60274.75;6070578;29;20588;-77
2022/10/05 09:23:43;;;;;;;2.53;1.50;;;;;;;-144.22;100.00;60274.75;6087601;29;20239;-77
2022/10/05 09:27:00;;;;;;;2.80;1.87;;;;;;;17.85;100.00;60274.75;6087996;29;20240;-78
2022/10/05 09:30:25;;;;;;;2.50;1.43;;;;;;;-144.22;100.00;60274.75;6071485;29;20646;-78
2022/10/05 09:33:50;;;;;;;2.87;1.73;;;;;;;-144.22;100.00;60274.75;6087193;29;20236;-77
2022/10/05 09:37:04;;;;;;;2.43;1.50;;;;;;;-144.22;100.00;60274.75;6086223;29;20236;-78
2022/10/05 09:40:12;;;;;;;1.87;1.67;;;;;;;-144.22;100.00;60274.75;6074565;29;20251;-78
2022/10/05 09:43:20;;;;;;;2.23;1.53;;;;;;;-144.22;100.00;60274.75;6070295;29;20240;-77
2022/10/05 09:46:47;;;;;;;2.13;1.57;;;;;;;-144.22;100.00;60274.75;6086095;29;20239;-78
2022/10/05 09:50:26;;;;;;;1.30;1.20;;;;;;;-144.22;100.00;60274.75;6085860;29;20235;-77
2022/10/05 09:53:39;;;;;;;2.20;1.53;;;;;;;17.85;100.00;60274.75;6070432;29;20240;-77
2022/10/05 09:57:02;;;;;;;4.73;1.60;;;;;;;-144.22;100.00;60274.75;6086516;29;20244;-77
2022/10/05 10:00:43;;;;;;;3.43;1.40;;;;;;;-144.22;100.00;60274.75;6087022;29;20319;-77
2022/10/05 10:04:08;;;;;;;1.60;1.50;;;;;;;-144.22;100.00;60274.75;5974086;29;20235;-77
2022/10/05 10:07:29;;;;;;;3.80;1.43;;;;;;;18.14;100.00;60274.75;6086706;29;20248;-77
2022/10/05 10:10:31;;;;;;;3.13;1.50;;;;;;;-144.22;100.00;60274.75;6086561;29;20232;-76
2022/10/05 10:13:45;;;;;;;3.07;1.40;;;;;;;18.85;100.00;60274.75;6085854;29;20588;-77
2022/10/05 10:17:18;;;;;;;2.27;1.70;;;;;;;-144.22;100.00;60274.75;6084692;29;20322;-77
2022/10/05 10:20:37;;;;;;;1.53;1.30;;;;;;;19.06;100.00;60274.75;6086451;29;20314;-77
2022/10/05 10:24:19;;;;;;;1.70;1.40;;;;;;;-144.22;100.00;60274.75;6085985;29;20866;-77
2022/10/05 10:27:35;;;;;;;4.70;1.60;;;;;;;-144.22;100.00;60274.75;6066760;29;20235;-77
2022/10/05 10:31:25;;;;;;;2.47;1.50;;;;;;;188.01;100.00;60274.75;6078863;29;20255;-77
2022/10/05 10:34:36;;;;;;;2.43;1.60;;;;;;;-144.22;100.00;60274.75;5990898;29;20238;-78
2022/10/05 10:38:18;;;;;;;1.73;1.30;;;;;;;19.15;100.00;60274.75;5980159;29;20786;-79
2022/10/05 10:41:49;;;;;;;3.10;1.70;;;;;;;-144.22;100.00;60274.75;5952904;29;20242;-79
2022/10/05 10:45:03;;;;;;;1.93;1.30;;;;;;;188.01;100.00;60274.75;5989646;29;20451;-78
2022/10/05 10:48:30;;;;;;;4.10;1.50;;;;;;;-144.22;100.00;60274.75;5991581;29;20295;-78
2022/10/05 10:51:59;;;;;;;2.40;1.30;;;;;;;-144.22;100.00;60274.75;5990395;29;20238;-78
2022/10/05 10:55:07;;;;;;;2.07;1.40;;;;;;;-144.22;100.00;60274.75;5960839;29;20838;-78
2022/10/05 10:58:30;;;;;;;1.50;1.40;;;;;;;19.46;100.00;60274.75;5957264;29;20249;-79
2022/10/05 11:01:48;;;;;;;1.50;1.20;;;;;;;-144.22;100.00;60274.75;5975221;29;20707;-78
2022/10/05 11:05:13;;;;;;;1.47;1.37;;;;;;;20.24;100.00;60274.75;5992901;29;20610;-78
2022/10/05 11:08:40;;;;;;;1.70;1.40;;;;;;;-144.22;100.00;60274.75;6038576;29;20354;-77
2022/10/05 11:12:00;;;;;;;5.47;1.60;;;;;;;-144.22;100.00;60274.75;6084768;29;20232;-78
2022/10/05 11:15:34;;;;;;;1.83;1.40;;;;;;;-144.22;100.00;60274.75;6084712;29;20228;-78
2022/10/05 11:19:07;;;;;;;1.90;1.47;;;;;;;20.43;100.00;60274.75;6057045;29;20251;-78
2022/10/05 11:22:29;;;;;;;3.03;1.50;;;;;;;-144.22;100.00;60274.75;6084596;29;20239;-79
2022/10/05 11:26:00;;;;;;;2.43;1.40;;;;;;;-144.22;100.00;60274.75;6084621;29;20738;-79
2022/10/05 11:29:30;;;;;;;3.37;1.80;;;;;;;-144.22;100.00;60274.75;6081466;29;20590;-78
2022/10/05 11:32:35;;;;;;;2.37;1.50;;;;;;;-144.22;100.00;60274.75;6084522;29;20254;-77
2022/10/05 11:35:43;;;;;;;2.80;1.50;;;;;;;-144.22;100.00;60274.75;6082774;29;20595;-79
2022/10/05 11:38:57;;;;;;;2.67;1.47;;;;;;;-144.22;100.00;60274.75;6083439;29;20235;-77
2022/10/05 11:42:17;;;;;;;2.27;1.60;;;;;;;20.89;100.00;60274.75;6084102;29;20220;-76
2022/10/05 11:45:23;;;;;;;4.17;1.63;;;;;;;-144.22;100.00;60274.75;6082672;29;20228;-77
2022/10/05 11:48:44;;;;;;;4.60;1.80;;;;;;;-144.22;100.00;60274.75;6083873;29;20292;-76
2022/10/05 11:51:54;;;;;;;4.13;1.73;;;;;;;-144.22;100.00;60274.75;6083180;29;20232;-77
2022/10/05 11:55:08;;;;;;;3.90;1.60;;;;;;;-144.22;100.00;60274.75;6085573;29;20231;-76
2022/10/05 11:58:23;;;;;;;3.00;1.77;;;;;;;21.54;100.00;60274.75;6083183;29;20246;-77
2022/10/05 12:01:44;;;;;;;4.27;2.00;;;;;;;-144.22;100.00;60274.75;6060639;29;20236;-76
2022/10/05 12:04:52;;;;;;;3.27;2.33;;;;;;;-144.22;100.00;60274.75;6083162;29;20307;-76
2022/10/05 12:08:21;;;;;;;2.20;1.70;;;;;;;21.74;100.00;60274.75;6088969;29;20609;-76
2022/10/05 12:11:42;;;;;;;3.17;2.00;;;;;;;-144.22;100.00;60274.75;6087848;29;20235;-76
2022/10/05 12:14:55;;;;;;;3.60;1.70;;;;;;;-144.22;100.00;60274.75;6089563;29;20239;-76
2022/10/05 12:18:40;;;;;;;2.10;1.80;;;;;;;-144.22;100.00;60274.75;6088108;29;20604;-76
2022/10/05 12:21:50;;;;;;;5.43;2.00;;;;;;;-144.22;100.00;60274.75;6088348;29;20228;-76
2022/10/05 12:25:25;;;;;;;4.43;2.03;;;;;;;-144.22;100.00;60274.75;6087760;29;20341;-76
2022/10/05 12:28:37;;;;;;;2.20;1.80;;;;;;;-144.22;100.00;60274.75;6050681;29;20232;-75
2022/10/05 12:32:05;;;;;;;2.47;1.90;;;;;;;-144.22;100.00;60274.75;6080491;29;20619;-75
2022/10/05 12:35:15;;;;;;;3.00;2.13;;;;;;;-144.22;100.00;60274.75;6075695;29;20259;-76
2022/10/05 12:38:45;;;;;;;4.47;1.90;;;;;;;22.81;100.00;60274.75;6088137;29;20300;-77
2022/10/05 12:42:09;;;;;;;2.73;1.83;;;;;;;-144.22;100.00;60274.75;6079398;29;20248;-76
2022/10/05 12:45:42;;;;;;;3.43;2.20;;;;;;;-144.22;100.00;60274.75;6076926;29;20270;-76
2022/10/05 12:49:14;;;;;;;2.03;1.50;;;;;;;-144.22;100.00;60274.75;6086808;29;20233;-76
2022/10/05 12:52:40;;;;;;;2.07;1.67;;;;;;;-144.22;100.00;60274.75;6088480;29;20280;-77
2022/10/05 12:55:58;;;;;;;3.80;1.80;;;;;;;-144.22;100.00;60274.75;6079108;29;20282;-78
2022/10/05 12:59:27;;;;;;;4.30;2.40;;;;;;;-144.22;100.00;60274.75;6082829;29;20240;-77
2022/10/05 13:02:41;;;;;;;2.30;1.70;;;;;;;188.01;100.00;60274.75;6087985;29;20790;-77
2022/10/05 13:05:43;;;;;;;4.17;2.07;;;;;;;-144.22;100.00;60274.75;6086502;29;20824;-77
2022/10/05 13:08:57;;;;;;;2.33;2.00;;;;;;;-144.22;100.00;60274.75;6088465;29;20255;-77
2022/10/05 13:12:08;;;;;;;3.90;1.93;;;;;;;-144.22;100.00;60274.75;6088541;29;20244;-77
2022/10/05 13:15:30;;;;;;;4.17;1.77;;;;;;;-144.22;100.00;60274.75;6086871;29;20223;-76
2022/10/05 13:18:51;;;;;;;7.03;2.10;;;;;;;-144.22;100.00;60274.75;6086871;29;20615;-76
2022/10/05 13:21:53;;;;;;;2.20;1.70;;;;;;;22.63;100.00;60274.75;6087577;29;20715;-77
2022/10/05 13:25:19;;;;;;;3.83;1.80;;;;;;;-144.22;100.00;60274.75;6086879;29;20239;-77
2022/10/05 13:28:38;;;;;;;2.93;2.20;;;;;;;-144.22;100.00;60274.75;6087701;29;20244;-77
2022/10/05 13:31:46;;;;;;;4.10;2.00;;;;;;;-144.22;100.00;60274.75;6087425;29;20247;-77
2022/10/05 13:35:33;;;;;;;4.07;2.17;;;;;;;22.93;100.00;60274.75;6063142;29;20251;-78
2022/10/05 13:39:04;;;;;;;3.50;1.50;;;;;;;-144.22;100.00;60274.75;6017191;29;20244;-77
2022/10/05 13:42:14;;;;;;;5.47;2.10;;;;;;;-144.22;100.00;60274.75;6063227;29;20240;-77
2022/10/05 13:45:22;;;;;;;4.50;2.17;;;;;;;-144.22;100.00;60274.75;6087149;29;20208;-77
2022/10/05 13:48:58;;;;;;;3.10;2.00;;;;;;;-144.22;100.00;60274.75;6086532;29;20715;-77
2022/10/05 13:52:21;;;;;;;3.73;1.90;;;;;;;-144.22;100.00;60274.75;6087255;29;20740;-77
2022/10/05 13:55:46;;;;;;;3.90;1.80;;;;;;;22.80;100.00;60274.75;6062382;29;20723;-77
2022/10/05 13:58:57;;;;;;;3.57;1.73;;;;;;;-144.22;100.00;60274.75;6056267;29;20261;-77
2022/10/05 14:02:08;;;;;;;2.50;1.70;;;;;;;42.51;100.00;60274.75;6087054;29;20604;-76
2022/10/05 14:05:15;;;;;;;4.83;1.60;;;;;;;-144.22;100.00;60274.75;6085181;29;20266;-77
2022/10/05 14:08:17;;;;;;;2.87;1.90;;;;;;;-144.22;100.00;60274.75;6085776;29;20301;-78
2022/10/05 14:11:25;;;;;;;2.53;1.80;;;;;;;21.09;100.00;60274.75;6086905;29;20722;-77
2022/10/05 14:14:30;;;;;;;5.27;2.20;;;;;;;-144.22;100.00;60274.75;6087169;29;20246;-77
2022/10/05 14:17:32;;;;;;;2.00;1.80;;;;;;;20.28;100.00;60274.75;6086783;29;20243;-77
2022/10/05 14:20:34;;;;;;;3.90;2.00;;;;;;;-144.22;100.00;60274.75;6086182;29;20522;-77
2022/10/05 14:23:37;;;;;;;4.20;1.93;;;;;;;-144.22;100.00;60274.75;6085919;29;20636;-77
2022/10/05 14:26:39;;;;;;;2.80;2.00;;;;;;;188.01;100.00;60274.75;6085468;29;20236;-76
2022/10/05 14:29:41;;;;;;;3.53;1.97;;;;;;;-144.22;100.00;60274.75;6073719;29;20232;-77
2022/10/05 14:33:14;;;;;;;5.87;2.10;;;;;;;-144.22;100.00;60274.75;6082112;29;20703;-76
2022/10/05 14:36:35;;;;;;;2.87;1.53;;;;;;;19.46;100.00;60274.75;6064942;29;20231;-77
2022/10/05 14:39:40;;;;;;;2.93;1.83;;;;;;;-144.22;100.00;60274.75;6087628;29;20235;-77
2022/10/05 14:42:42;;;;;;;3.87;2.20;;;;;;;19.10;100.00;60274.75;6086189;29;20266;-77
2022/10/05 14:46:00;;;;;;;2.77;1.63;;;;;;;19.15;100.00;60274.75;6085825;29;20240;-77
2022/10/05 14:49:11;;;;;;;3.10;1.93;;;;;;;-144.22;100.00;60274.75;6084863;29;20299;-77
2022/10/05 14:52:31;;;;;;;1.93;1.77;;;;;;;-144.22;100.00;60274.75;6085537;29;20242;-77
2022/10/05 14:55:46;;;;;;;5.53;2.13;;;;;;;-144.22;100.00;60274.75;6083515;29;20318;-77
2022/10/05 14:59:22;;;;;;;4.50;2.27;;;;;;;-144.22;100.00;60274.75;6085075;29;20824;-77
2022/10/05 15:02:59;;;;;;;3.90;2.27;;;;;;;-144.22;100.00;60274.75;6085872;29;20249;-77
2022/10/05 15:06:04;;;;;;;5.33;2.23;;;;;;;-144.22;100.00;60274.75;6056211;29;20240;-77
2022/10/05 15:09:17;;;;;;;2.67;2.10;;;;;;;-144.22;100.00;60274.75;6088074;29;20239;-77